sensor_id;sensor_type;location;lat;lon;timestamp;P1;durP1;ratioP1;P2;durP2;ratioP2
65198;SDS011;52170;45.018;37.910;2023-04-25T15:01:22;6.38;;;2.20;;
65198;SDS011;52170;45.018;37.910;2023-04-25T15:03:48;6.75;;;2.10;;
65198;SDS011;52170;45.018;37.910;2023-04-25T15:06:14;6.67;;;2.40;;
65198;SDS011;52170;45.018;37.910;2023-04-25T15:08:40;6.00;;;2.00;;
65198;SDS011;52170;45.018;37.910;2023-04-25T15:11:06;8.05;;;2.30;;
65198;SDS011;52170;45.018;37.910;2023-04-25T15:13:32;10.63;;;2.35;;
65198;SDS011;52170;45.018;37.910;2023-04-25T15:15:59;9.73;;;2.42;;
65198;SDS011;52170;45.018;37.910;2023-04-25T15:18:26;5.35;;;2.10;;
65198;SDS011;52170;45.018;37.910;2023-04-25T15:20:52;6.07;;;2.20;;
65198;SDS011;52170;45.018;37.910;2023-04-25T15:23:19;6.00;;;2.10;;
65198;SDS011;52170;45.018;37.910;2023-04-25T15:25:45;3.65;;;1.90;;
65198;SDS011;52170;45.018;37.910;2023-04-25T15:28:12;5.57;;;2.03;;
65198;SDS011;52170;45.018;37.910;2023-04-25T15:30:42;5.70;;;1.88;;
65198;SDS011;52170;45.018;37.910;2023-04-25T15:33:08;6.30;;;2.30;;
65198;SDS011;52170;45.018;37.910;2023-04-25T15:35:34;5.43;;;2.25;;
65198;SDS011;52170;45.018;37.910;2023-04-25T15:38:00;6.00;;;2.20;;
65198;SDS011;52170;45.018;37.910;2023-04-25T15:40:26;5.15;;;2.20;;
65198;SDS011;52170;45.018;37.910;2023-04-25T15:42:52;5.22;;;2.25;;
65198;SDS011;52170;45.018;37.910;2023-04-25T15:45:20;8.38;;;2.17;;
65198;SDS011;52170;45.018;37.910;2023-04-25T15:47:48;5.22;;;2.22;;
65198;SDS011;52170;45.018;37.910;2023-04-25T15:50:15;11.25;;;2.42;;
65198;SDS011;52170;45.018;37.910;2023-04-25T15:52:41;9.23;;;2.40;;
65198;SDS011;52170;45.018;37.910;2023-04-25T15:55:08;8.75;;;2.78;;
65198;SDS011;52170;45.018;37.910;2023-04-25T15:57:34;8.07;;;3.00;;
65198;SDS011;52170;45.018;37.910;2023-04-25T16:00:01;7.78;;;2.75;;
65198;SDS011;52170;45.018;37.910;2023-04-25T16:02:38;7.38;;;2.60;;
65198;SDS011;52170;45.018;37.910;2023-04-25T16:05:04;7.83;;;3.10;;
65198;SDS011;52170;45.018;37.910;2023-04-25T16:07:31;14.30;;;3.85;;
65198;SDS011;52170;45.018;37.910;2023-04-25T16:09:57;7.95;;;3.00;;
65198;SDS011;52170;45.018;37.910;2023-04-25T16:12:23;10.82;;;2.90;;
65198;SDS011;52170;45.018;37.910;2023-04-25T16:14:49;10.13;;;2.75;;
65198;SDS011;52170;45.018;37.910;2023-04-25T16:17:15;8.93;;;2.80;;
65198;SDS011;52170;45.018;37.910;2023-04-25T16:19:41;12.98;;;2.45;;
65198;SDS011;52170;45.018;37.910;2023-04-25T16:22:07;14.20;;;2.42;;
65198;SDS011;52170;45.018;37.910;2023-04-25T16:24:34;5.15;;;2.30;;
65198;SDS011;52170;45.018;37.910;2023-04-25T16:27:00;6.55;;;2.17;;
65198;SDS011;52170;45.018;37.910;2023-04-25T16:29:28;6.85;;;2.40;;
65198;SDS011;52170;45.018;37.910;2023-04-25T16:31:54;10.40;;;2.40;;
65198;SDS011;52170;45.018;37.910;2023-04-25T16:34:20;5.38;;;2.58;;
65198;SDS011;52170;45.018;37.910;2023-04-25T16:36:47;7.80;;;2.30;;
65198;SDS011;52170;45.018;37.910;2023-04-25T16:39:14;6.28;;;2.25;;
65198;SDS011;52170;45.018;37.910;2023-04-25T16:41:40;6.97;;;2.30;;
65198;SDS011;52170;45.018;37.910;2023-04-25T16:44:06;6.60;;;2.50;;
65198;SDS011;52170;45.018;37.910;2023-04-25T16:46:33;7.45;;;2.90;;
65198;SDS011;52170;45.018;37.910;2023-04-25T16:48:59;6.88;;;2.50;;
65198;SDS011;52170;45.018;37.910;2023-04-25T16:51:25;11.60;;;2.58;;
65198;SDS011;52170;45.018;37.910;2023-04-25T16:53:52;8.27;;;2.60;;
65198;SDS011;52170;45.018;37.910;2023-04-25T16:56:19;5.63;;;2.58;;
65198;SDS011;52170;45.018;37.910;2023-04-25T16:58:45;8.85;;;2.90;;
65198;SDS011;52170;45.018;37.910;2023-04-25T17:01:11;7.07;;;2.40;;
65198;SDS011;52170;45.018;37.910;2023-04-25T17:03:40;9.25;;;2.65;;
65198;SDS011;52170;45.018;37.910;2023-04-25T17:06:07;16.27;;;3.08;;
65198;SDS011;52170;45.018;37.910;2023-04-25T17:08:37;5.53;;;2.90;;
65198;SDS011;52170;45.018;37.910;2023-04-25T17:11:03;10.27;;;3.00;;
65198;SDS011;52170;45.018;37.910;2023-04-25T17:13:30;9.50;;;2.97;;
65198;SDS011;52170;45.018;37.910;2023-04-25T17:15:57;6.47;;;2.80;;
65198;SDS011;52170;45.018;37.910;2023-04-25T17:18:24;6.55;;;2.55;;
65198;SDS011;52170;45.018;37.910;2023-04-25T17:20:50;6.90;;;3.00;;
65198;SDS011;52170;45.018;37.910;2023-04-25T17:23:17;5.68;;;2.80;;
65198;SDS011;52170;45.018;37.910;2023-04-25T17:25:43;7.40;;;2.92;;
65198;SDS011;52170;45.018;37.910;2023-04-25T17:28:09;10.82;;;3.10;;
65198;SDS011;52170;45.018;37.910;2023-04-25T17:30:35;8.50;;;3.20;;
65198;SDS011;52170;45.018;37.910;2023-04-25T17:33:01;13.88;;;3.72;;
65198;SDS011;52170;45.018;37.910;2023-04-25T17:35:28;11.95;;;3.47;;
65198;SDS011;52170;45.018;37.910;2023-04-25T17:37:54;9.87;;;3.90;;
65198;SDS011;52170;45.018;37.910;2023-04-25T17:40:21;11.27;;;4.38;;
65198;SDS011;52170;45.018;37.910;2023-04-25T17:42:46;13.48;;;3.75;;
65198;SDS011;52170;45.018;37.910;2023-04-25T17:45:12;14.00;;;3.58;;
65198;SDS011;52170;45.018;37.910;2023-04-25T17:47:38;11.02;;;3.30;;
65198;SDS011;52170;45.018;37.910;2023-04-25T17:50:05;11.98;;;3.78;;
65198;SDS011;52170;45.018;37.910;2023-04-25T17:52:32;11.02;;;3.33;;
65198;SDS011;52170;45.018;37.910;2023-04-25T17:54:58;9.05;;;3.17;;
65198;SDS011;52170;45.018;37.910;2023-04-25T17:57:30;10.80;;;3.58;;
65198;SDS011;52170;45.018;37.910;2023-04-25T17:59:56;17.38;;;4.05;;
65198;SDS011;52170;45.018;37.910;2023-04-25T18:02:22;13.13;;;3.55;;
65198;SDS011;52170;45.018;37.910;2023-04-25T18:04:48;10.10;;;3.78;;
65198;SDS011;52170;45.018;37.910;2023-04-25T18:07:14;9.73;;;3.92;;
65198;SDS011;52170;45.018;37.910;2023-04-25T18:09:40;15.48;;;4.57;;
65198;SDS011;52170;45.018;37.910;2023-04-25T18:12:06;14.07;;;4.35;;
65198;SDS011;52170;45.018;37.910;2023-04-25T18:14:33;13.18;;;4.13;;
65198;SDS011;52170;45.018;37.910;2023-04-25T18:17:00;12.45;;;4.32;;
65198;SDS011;52170;45.018;37.910;2023-04-25T18:19:28;21.23;;;4.72;;
65198;SDS011;52170;45.018;37.910;2023-04-25T18:21:54;14.50;;;4.45;;
65198;SDS011;52170;45.018;37.910;2023-04-25T18:24:21;17.50;;;4.70;;
65198;SDS011;52170;45.018;37.910;2023-04-25T18:26:48;14.13;;;4.40;;
65198;SDS011;52170;45.018;37.910;2023-04-25T18:29:16;13.50;;;5.30;;
65198;SDS011;52170;45.018;37.910;2023-04-25T18:31:43;8.97;;;4.87;;
65198;SDS011;52170;45.018;37.910;2023-04-25T18:34:10;14.38;;;5.00;;
65198;SDS011;52170;45.018;37.910;2023-04-25T18:36:36;21.77;;;4.87;;
65198;SDS011;52170;45.018;37.910;2023-04-25T18:39:06;16.40;;;5.00;;
65198;SDS011;52170;45.018;37.910;2023-04-25T18:41:33;17.10;;;4.82;;
65198;SDS011;52170;45.018;37.910;2023-04-25T18:44:00;17.15;;;5.22;;
65198;SDS011;52170;45.018;37.910;2023-04-25T18:46:27;18.80;;;4.93;;
65198;SDS011;52170;45.018;37.910;2023-04-25T18:48:55;14.87;;;4.97;;
65198;SDS011;52170;45.018;37.910;2023-04-25T18:51:22;15.93;;;4.80;;
65198;SDS011;52170;45.018;37.910;2023-04-25T18:53:48;20.13;;;4.95;;
65198;SDS011;52170;45.018;37.910;2023-04-25T18:56:15;13.80;;;4.53;;
65198;SDS011;52170;45.018;37.910;2023-04-25T18:58:41;13.47;;;4.90;;
65198;SDS011;52170;45.018;37.910;2023-04-25T19:01:08;16.77;;;4.43;;
65198;SDS011;52170;45.018;37.910;2023-04-25T19:03:34;14.35;;;4.35;;
65198;SDS011;52170;45.018;37.910;2023-04-25T19:06:00;16.23;;;4.97;;
65198;SDS011;52170;45.018;37.910;2023-04-25T19:08:27;18.83;;;5.00;;
65198;SDS011;52170;45.018;37.910;2023-04-25T19:10:53;13.13;;;4.20;;
65198;SDS011;52170;45.018;37.910;2023-04-25T19:13:19;17.70;;;4.68;;
65198;SDS011;52170;45.018;37.910;2023-04-25T19:15:46;13.38;;;4.25;;
65198;SDS011;52170;45.018;37.910;2023-04-25T19:18:12;18.55;;;4.60;;
65198;SDS011;52170;45.018;37.910;2023-04-25T19:20:42;17.95;;;4.88;;
65198;SDS011;52170;45.018;37.910;2023-04-25T19:23:08;13.07;;;4.60;;
65198;SDS011;52170;45.018;37.910;2023-04-25T19:25:37;16.33;;;4.72;;
65198;SDS011;52170;45.018;37.910;2023-04-25T19:28:03;15.52;;;5.10;;
65198;SDS011;52170;45.018;37.910;2023-04-25T19:30:31;15.45;;;4.63;;
65198;SDS011;52170;45.018;37.910;2023-04-25T19:32:57;15.38;;;4.70;;
65198;SDS011;52170;45.018;37.910;2023-04-25T19:35:23;19.77;;;5.65;;
65198;SDS011;52170;45.018;37.910;2023-04-25T19:37:55;18.27;;;4.65;;
65198;SDS011;52170;45.018;37.910;2023-04-25T19:40:21;13.97;;;5.03;;
65198;SDS011;52170;45.018;37.910;2023-04-25T19:42:47;22.55;;;5.60;;
65198;SDS011;52170;45.018;37.910;2023-04-25T19:45:13;20.05;;;5.47;;
65198;SDS011;52170;45.018;37.910;2023-04-25T19:47:39;12.57;;;4.95;;
65198;SDS011;52170;45.018;37.910;2023-04-25T19:50:06;19.50;;;5.05;;
65198;SDS011;52170;45.018;37.910;2023-04-25T19:52:37;14.88;;;5.20;;
65198;SDS011;52170;45.018;37.910;2023-04-25T19:55:04;16.40;;;5.10;;
65198;SDS011;52170;45.018;37.910;2023-04-25T19:57:30;23.02;;;5.60;;
65198;SDS011;52170;45.018;37.910;2023-04-25T19:59:58;19.75;;;5.90;;
65198;SDS011;52170;45.018;37.910;2023-04-25T20:02:26;14.32;;;5.40;;
65198;SDS011;52170;45.018;37.910;2023-04-25T20:04:52;16.60;;;5.70;;
65198;SDS011;52170;45.018;37.910;2023-04-25T20:07:18;16.70;;;5.57;;
65198;SDS011;52170;45.018;37.910;2023-04-25T20:09:46;15.02;;;5.78;;
65198;SDS011;52170;45.018;37.910;2023-04-25T20:12:13;21.80;;;5.40;;
65198;SDS011;52170;45.018;37.910;2023-04-25T20:14:40;22.77;;;5.60;;
65198;SDS011;52170;45.018;37.910;2023-04-25T20:17:07;19.60;;;5.45;;
65198;SDS011;52170;45.018;37.910;2023-04-25T20:19:35;17.45;;;5.47;;
65198;SDS011;52170;45.018;37.910;2023-04-25T20:22:02;17.77;;;5.50;;
65198;SDS011;52170;45.018;37.910;2023-04-25T20:24:30;30.45;;;6.25;;
65198;SDS011;52170;45.018;37.910;2023-04-25T20:26:56;25.63;;;6.25;;
65198;SDS011;52170;45.018;37.910;2023-04-25T20:29:22;16.08;;;5.30;;
65198;SDS011;52170;45.018;37.910;2023-04-25T20:31:50;22.98;;;5.88;;
65198;SDS011;52170;45.018;37.910;2023-04-25T20:34:17;18.88;;;5.35;;
65198;SDS011;52170;45.018;37.910;2023-04-25T20:36:44;18.00;;;5.37;;
65198;SDS011;52170;45.018;37.910;2023-04-25T20:39:10;20.07;;;5.73;;
65198;SDS011;52170;45.018;37.910;2023-04-25T20:41:36;21.77;;;5.57;;
65198;SDS011;52170;45.018;37.910;2023-04-25T20:44:02;17.23;;;5.50;;
65198;SDS011;52170;45.018;37.910;2023-04-25T20:46:28;18.05;;;6.10;;
65198;SDS011;52170;45.018;37.910;2023-04-25T20:48:55;30.70;;;7.07;;
65198;SDS011;52170;45.018;37.910;2023-04-25T20:51:21;20.55;;;6.95;;
65198;SDS011;52170;45.018;37.910;2023-04-25T20:53:47;20.65;;;6.88;;
65198;SDS011;52170;45.018;37.910;2023-04-25T20:56:13;18.23;;;6.87;;
65198;SDS011;52170;45.018;37.910;2023-04-25T20:58:39;20.87;;;6.97;;
65198;SDS011;52170;45.018;37.910;2023-04-25T21:01:05;23.48;;;6.65;;
65198;SDS011;52170;45.018;37.910;2023-04-25T21:03:32;17.10;;;6.73;;
65198;SDS011;52170;45.018;37.910;2023-04-25T21:05:59;21.65;;;6.75;;
65198;SDS011;52170;45.018;37.910;2023-04-25T21:08:26;17.00;;;6.23;;
65198;SDS011;52170;45.018;37.910;2023-04-25T21:10:52;24.58;;;6.32;;
65198;SDS011;52170;45.018;37.910;2023-04-25T21:13:18;15.63;;;6.60;;
65198;SDS011;52170;45.018;37.910;2023-04-25T21:15:44;16.48;;;6.13;;
65198;SDS011;52170;45.018;37.910;2023-04-25T21:18:10;15.65;;;6.18;;
65198;SDS011;52170;45.018;37.910;2023-04-25T21:20:36;22.20;;;6.53;;
65198;SDS011;52170;45.018;37.910;2023-04-25T21:23:01;16.33;;;6.13;;
65198;SDS011;52170;45.018;37.910;2023-04-25T21:25:27;15.20;;;6.20;;
65198;SDS011;52170;45.018;37.910;2023-04-25T21:27:55;14.52;;;6.38;;
65198;SDS011;52170;45.018;37.910;2023-04-25T21:30:22;18.65;;;6.15;;
65198;SDS011;52170;45.018;37.910;2023-04-25T21:32:50;16.17;;;6.45;;
65198;SDS011;52170;45.018;37.910;2023-04-25T21:35:17;14.65;;;6.53;;
65198;SDS011;52170;45.018;37.910;2023-04-25T21:37:44;17.55;;;6.88;;
65198;SDS011;52170;45.018;37.910;2023-04-25T21:40:11;15.30;;;7.00;;
65198;SDS011;52170;45.018;37.910;2023-04-25T21:42:38;17.48;;;7.25;;
65198;SDS011;52170;45.018;37.910;2023-04-25T21:45:06;24.75;;;7.68;;
65198;SDS011;52170;45.018;37.910;2023-04-25T21:47:34;15.38;;;7.45;;
65198;SDS011;52170;45.018;37.910;2023-04-25T21:50:00;15.20;;;7.20;;
65198;SDS011;52170;45.018;37.910;2023-04-25T21:52:26;18.48;;;7.45;;
65198;SDS011;52170;45.018;37.910;2023-04-25T21:54:53;18.65;;;7.78;;
65198;SDS011;52170;45.018;37.910;2023-04-25T21:57:19;21.63;;;8.38;;
65198;SDS011;52170;45.018;37.910;2023-04-25T21:59:46;15.93;;;7.47;;
65198;SDS011;52170;45.018;37.910;2023-04-25T22:02:13;20.60;;;7.25;;
65198;SDS011;52170;45.018;37.910;2023-04-25T22:04:39;16.27;;;7.05;;
65198;SDS011;52170;45.018;37.910;2023-04-25T22:07:14;16.73;;;6.18;;
65198;SDS011;52170;45.018;37.910;2023-04-25T22:09:40;15.90;;;5.80;;
65198;SDS011;52170;45.018;37.910;2023-04-25T22:12:06;15.07;;;5.70;;
65198;SDS011;52170;45.018;37.910;2023-04-25T22:14:33;10.67;;;5.30;;
65198;SDS011;52170;45.018;37.910;2023-04-25T22:17:02;13.75;;;5.55;;
65198;SDS011;52170;45.018;37.910;2023-04-25T22:19:28;15.05;;;5.57;;
65198;SDS011;52170;45.018;37.910;2023-04-25T22:21:54;17.40;;;5.45;;
65198;SDS011;52170;45.018;37.910;2023-04-25T22:24:20;10.75;;;5.10;;
65198;SDS011;52170;45.018;37.910;2023-04-25T22:26:47;9.30;;;4.90;;
65198;SDS011;52170;45.018;37.910;2023-04-25T22:29:13;10.57;;;5.40;;
65198;SDS011;52170;45.018;37.910;2023-04-25T22:31:40;11.18;;;4.80;;
65198;SDS011;52170;45.018;37.910;2023-04-25T22:34:06;16.27;;;5.55;;
65198;SDS011;52170;45.018;37.910;2023-04-25T22:36:32;20.92;;;5.75;;
65198;SDS011;52170;45.018;37.910;2023-04-25T22:38:58;17.75;;;5.80;;
65198;SDS011;52170;45.018;37.910;2023-04-25T22:41:24;12.88;;;4.80;;
65198;SDS011;52170;45.018;37.910;2023-04-25T22:43:50;11.45;;;4.53;;
65198;SDS011;52170;45.018;37.910;2023-04-25T22:46:18;8.15;;;3.42;;
65198;SDS011;52170;45.018;37.910;2023-04-25T22:48:45;9.15;;;3.63;;
65198;SDS011;52170;45.018;37.910;2023-04-25T22:51:12;11.43;;;3.65;;
65198;SDS011;52170;45.018;37.910;2023-04-25T22:53:40;7.80;;;3.17;;
65198;SDS011;52170;45.018;37.910;2023-04-25T22:56:06;5.55;;;3.10;;
65198;SDS011;52170;45.018;37.910;2023-04-25T22:58:36;9.30;;;3.30;;
65198;SDS011;52170;45.018;37.910;2023-04-25T23:01:05;7.07;;;3.00;;
65198;SDS011;52170;45.018;37.910;2023-04-25T23:03:32;9.05;;;3.13;;
65198;SDS011;52170;45.018;37.910;2023-04-25T23:05:58;8.95;;;2.95;;
65198;SDS011;52170;45.018;37.910;2023-04-25T23:08:25;7.28;;;2.85;;
65198;SDS011;52170;45.018;37.910;2023-04-25T23:10:55;7.40;;;3.20;;
65198;SDS011;52170;45.018;37.910;2023-04-25T23:13:21;7.75;;;2.90;;
65198;SDS011;52170;45.018;37.910;2023-04-25T23:15:47;6.43;;;2.70;;
65198;SDS011;52170;45.018;37.910;2023-04-25T23:18:13;7.47;;;2.72;;
65198;SDS011;52170;45.018;37.910;2023-04-25T23:20:39;7.57;;;2.85;;
65198;SDS011;52170;45.018;37.910;2023-04-25T23:23:05;5.90;;;2.80;;
65198;SDS011;52170;45.018;37.910;2023-04-25T23:25:31;6.82;;;2.97;;
65198;SDS011;52170;45.018;37.910;2023-04-25T23:27:57;6.80;;;2.70;;
65198;SDS011;52170;45.018;37.910;2023-04-25T23:30:23;6.30;;;2.95;;
65198;SDS011;52170;45.018;37.910;2023-04-25T23:32:50;9.30;;;3.10;;
65198;SDS011;52170;45.018;37.910;2023-04-25T23:35:16;10.98;;;3.25;;
65198;SDS011;52170;45.018;37.910;2023-04-25T23:37:42;12.95;;;3.65;;
65198;SDS011;52170;45.018;37.910;2023-04-25T23:40:08;15.88;;;3.67;;
65198;SDS011;52170;45.018;37.910;2023-04-25T23:42:36;13.73;;;3.70;;
65198;SDS011;52170;45.018;37.910;2023-04-25T23:45:04;13.13;;;4.03;;
65198;SDS011;52170;45.018;37.910;2023-04-25T23:47:31;14.32;;;4.85;;
65198;SDS011;52170;45.018;37.910;2023-04-25T23:49:57;8.40;;;4.70;;
65198;SDS011;52170;45.018;37.910;2023-04-25T23:52:23;14.70;;;4.75;;
65198;SDS011;52170;45.018;37.910;2023-04-25T23:54:50;13.63;;;4.40;;
65198;SDS011;52170;45.018;37.910;2023-04-25T23:57:16;9.10;;;4.20;;
65198;SDS011;52170;45.018;37.910;2023-04-25T23:59:42;10.75;;;4.85;;
